sensor_id;sensor_type;location;lat;lon;timestamp;P1;durP1;ratioP1;P2;durP2;ratioP2
37907;SDS011;23740;51.550;6.846;2022-07-03T00:01:58;4.70;;;2.47;;
37907;SDS011;23740;51.550;6.846;2022-07-03T00:04:24;2.63;;;1.90;;
37907;SDS011;23740;51.550;6.846;2022-07-03T00:06:49;3.80;;;2.30;;
37907;SDS011;23740;51.550;6.846;2022-07-03T00:09:14;4.20;;;1.70;;
37907;SDS011;23740;51.550;6.846;2022-07-03T00:11:40;2.42;;;1.92;;
37907;SDS011;23740;51.550;6.846;2022-07-03T00:14:06;2.78;;;1.77;;
37907;SDS011;23740;51.550;6.846;2022-07-03T00:16:31;6.93;;;2.30;;
37907;SDS011;23740;51.550;6.846;2022-07-03T00:18:56;2.50;;;1.67;;
37907;SDS011;23740;51.550;6.846;2022-07-03T00:21:29;2.72;;;2.03;;
37907;SDS011;23740;51.550;6.846;2022-07-03T00:24:02;3.88;;;1.40;;
37907;SDS011;23740;51.550;6.846;2022-07-03T00:26:34;3.30;;;1.70;;
37907;SDS011;23740;51.550;6.846;2022-07-03T00:29:02;4.63;;;1.77;;
37907;SDS011;23740;51.550;6.846;2022-07-03T00:31:32;2.85;;;1.85;;
37907;SDS011;23740;51.550;6.846;2022-07-03T00:33:58;3.47;;;2.00;;
37907;SDS011;23740;51.550;6.846;2022-07-03T00:36:37;3.60;;;1.85;;
37907;SDS011;23740;51.550;6.846;2022-07-03T00:39:02;3.70;;;1.77;;
37907;SDS011;23740;51.550;6.846;2022-07-03T00:41:30;2.55;;;1.70;;
37907;SDS011;23740;51.550;6.846;2022-07-03T00:43:57;4.13;;;1.93;;
37907;SDS011;23740;51.550;6.846;2022-07-03T00:46:23;4.28;;;1.67;;
37907;SDS011;23740;51.550;6.846;2022-07-03T00:48:49;3.38;;;1.90;;
37907;SDS011;23740;51.550;6.846;2022-07-03T00:51:18;6.10;;;2.00;;
37907;SDS011;23740;51.550;6.846;2022-07-03T00:53:46;1.60;;;1.50;;
37907;SDS011;23740;51.550;6.846;2022-07-03T00:56:14;3.92;;;1.88;;
37907;SDS011;23740;51.550;6.846;2022-07-03T00:58:41;4.10;;;1.90;;
37907;SDS011;23740;51.550;6.846;2022-07-03T01:01:07;4.25;;;1.80;;
37907;SDS011;23740;51.550;6.846;2022-07-03T01:03:34;7.80;;;1.83;;
37907;SDS011;23740;51.550;6.846;2022-07-03T01:06:08;2.67;;;1.98;;
37907;SDS011;23740;51.550;6.846;2022-07-03T01:08:43;3.00;;;1.77;;
37907;SDS011;23740;51.550;6.846;2022-07-03T01:14:47;2.45;;;1.80;;
37907;SDS011;23740;51.550;6.846;2022-07-03T01:17:08;2.70;;;1.65;;
37907;SDS011;23740;51.550;6.846;2022-07-03T01:20:00;4.03;;;2.05;;
37907;SDS011;23740;51.550;6.846;2022-07-03T01:27:56;3.90;;;1.70;;
37907;SDS011;23740;51.550;6.846;2022-07-03T01:30:42;3.25;;;1.83;;
37907;SDS011;23740;51.550;6.846;2022-07-03T01:33:19;2.05;;;1.58;;
37907;SDS011;23740;51.550;6.846;2022-07-03T01:38:30;2.35;;;1.73;;
37907;SDS011;23740;51.550;6.846;2022-07-03T01:41:00;4.72;;;1.98;;
37907;SDS011;23740;51.550;6.846;2022-07-03T01:43:28;4.28;;;1.90;;
37907;SDS011;23740;51.550;6.846;2022-07-03T01:45:56;3.83;;;1.70;;
37907;SDS011;23740;51.550;6.846;2022-07-03T01:48:23;2.00;;;1.70;;
37907;SDS011;23740;51.550;6.846;2022-07-03T01:50:50;3.40;;;2.00;;
37907;SDS011;23740;51.550;6.846;2022-07-03T01:53:16;2.90;;;1.60;;
37907;SDS011;23740;51.550;6.846;2022-07-03T01:55:42;4.13;;;2.00;;
37907;SDS011;23740;51.550;6.846;2022-07-03T01:58:08;4.20;;;2.00;;
37907;SDS011;23740;51.550;6.846;2022-07-03T02:00:45;3.42;;;1.92;;
37907;SDS011;23740;51.550;6.846;2022-07-03T02:03:12;3.72;;;1.90;;
37907;SDS011;23740;51.550;6.846;2022-07-03T02:05:47;2.63;;;2.28;;
37907;SDS011;23740;51.550;6.846;2022-07-03T02:10:57;5.72;;;1.98;;
37907;SDS011;23740;51.550;6.846;2022-07-03T02:13:27;4.25;;;2.15;;
37907;SDS011;23740;51.550;6.846;2022-07-03T02:15:53;3.15;;;2.17;;
37907;SDS011;23740;51.550;6.846;2022-07-03T02:18:27;3.85;;;2.70;;
37907;SDS011;23740;51.550;6.846;2022-07-03T02:21:15;3.03;;;2.28;;
37907;SDS011;23740;51.550;6.846;2022-07-03T02:26:36;3.30;;;1.95;;
37907;SDS011;23740;51.550;6.846;2022-07-03T02:31:32;2.28;;;1.98;;
37907;SDS011;23740;51.550;6.846;2022-07-03T02:33:59;2.78;;;2.08;;
37907;SDS011;23740;51.550;6.846;2022-07-03T02:36:29;4.30;;;2.20;;
37907;SDS011;23740;51.550;6.846;2022-07-03T02:38:57;3.67;;;2.28;;
37907;SDS011;23740;51.550;6.846;2022-07-03T02:41:26;5.00;;;2.20;;
37907;SDS011;23740;51.550;6.846;2022-07-03T03:00:59;3.65;;;2.20;;
37907;SDS011;23740;51.550;6.846;2022-07-03T03:03:31;2.65;;;2.22;;
37907;SDS011;23740;51.550;6.846;2022-07-03T03:06:04;2.65;;;1.70;;
37907;SDS011;23740;51.550;6.846;2022-07-03T03:13:58;3.28;;;2.35;;
37907;SDS011;23740;51.550;6.846;2022-07-03T03:16:25;3.13;;;2.10;;
37907;SDS011;23740;51.550;6.846;2022-07-03T03:18:51;2.53;;;1.90;;
37907;SDS011;23740;51.550;6.846;2022-07-03T03:21:17;4.53;;;2.03;;
37907;SDS011;23740;51.550;6.846;2022-07-03T03:23:47;3.15;;;2.15;;
37907;SDS011;23740;51.550;6.846;2022-07-03T03:28:46;4.00;;;2.13;;
37907;SDS011;23740;51.550;6.846;2022-07-03T03:31:13;2.65;;;2.00;;
37907;SDS011;23740;51.550;6.846;2022-07-03T03:33:39;3.65;;;1.90;;
37907;SDS011;23740;51.550;6.846;2022-07-03T03:36:08;4.47;;;2.40;;
37907;SDS011;23740;51.550;6.846;2022-07-03T03:38:36;2.95;;;1.92;;
37907;SDS011;23740;51.550;6.846;2022-07-03T03:41:02;5.50;;;2.20;;
37907;SDS011;23740;51.550;6.846;2022-07-03T03:43:28;4.55;;;2.10;;
37907;SDS011;23740;51.550;6.846;2022-07-03T03:45:55;2.90;;;2.08;;
37907;SDS011;23740;51.550;6.846;2022-07-03T03:48:20;6.05;;;2.50;;
37907;SDS011;23740;51.550;6.846;2022-07-03T03:50:46;3.55;;;2.10;;
37907;SDS011;23740;51.550;6.846;2022-07-03T03:53:11;2.13;;;1.90;;
37907;SDS011;23740;51.550;6.846;2022-07-03T03:55:37;2.97;;;2.15;;
37907;SDS011;23740;51.550;6.846;2022-07-03T03:58:02;5.40;;;2.22;;
37907;SDS011;23740;51.550;6.846;2022-07-03T04:00:29;3.17;;;2.15;;
37907;SDS011;23740;51.550;6.846;2022-07-03T04:02:55;3.38;;;2.00;;
37907;SDS011;23740;51.550;6.846;2022-07-03T04:05:21;4.88;;;2.20;;
37907;SDS011;23740;51.550;6.846;2022-07-03T04:07:46;4.20;;;2.53;;
37907;SDS011;23740;51.550;6.846;2022-07-03T04:10:11;4.30;;;2.08;;
37907;SDS011;23740;51.550;6.846;2022-07-03T04:12:37;4.45;;;2.63;;
37907;SDS011;23740;51.550;6.846;2022-07-03T04:15:02;3.22;;;2.10;;
37907;SDS011;23740;51.550;6.846;2022-07-03T04:17:28;3.70;;;2.08;;
37907;SDS011;23740;51.550;6.846;2022-07-03T04:19:54;4.00;;;2.28;;
37907;SDS011;23740;51.550;6.846;2022-07-03T04:22:19;4.13;;;2.28;;
37907;SDS011;23740;51.550;6.846;2022-07-03T04:24:45;7.20;;;2.50;;
37907;SDS011;23740;51.550;6.846;2022-07-03T04:27:10;4.78;;;2.50;;
37907;SDS011;23740;51.550;6.846;2022-07-03T04:29:35;4.45;;;2.55;;
37907;SDS011;23740;51.550;6.846;2022-07-03T04:32:01;5.10;;;2.47;;
37907;SDS011;23740;51.550;6.846;2022-07-03T04:34:26;6.60;;;3.17;;
37907;SDS011;23740;51.550;6.846;2022-07-03T04:36:52;3.67;;;2.90;;
37907;SDS011;23740;51.550;6.846;2022-07-03T04:39:17;7.00;;;3.03;;
37907;SDS011;23740;51.550;6.846;2022-07-03T04:41:43;5.28;;;2.63;;
37907;SDS011;23740;51.550;6.846;2022-07-03T04:44:08;6.47;;;3.30;;
37907;SDS011;23740;51.550;6.846;2022-07-03T04:46:33;7.10;;;3.10;;
37907;SDS011;23740;51.550;6.846;2022-07-03T04:48:59;6.68;;;3.22;;
37907;SDS011;23740;51.550;6.846;2022-07-03T04:51:24;6.15;;;3.03;;
37907;SDS011;23740;51.550;6.846;2022-07-03T04:53:50;4.22;;;2.80;;
37907;SDS011;23740;51.550;6.846;2022-07-03T04:56:15;3.70;;;3.03;;
37907;SDS011;23740;51.550;6.846;2022-07-03T04:58:41;5.05;;;2.47;;
37907;SDS011;23740;51.550;6.846;2022-07-03T05:01:06;4.30;;;2.92;;
37907;SDS011;23740;51.550;6.846;2022-07-03T05:03:31;5.65;;;3.38;;
37907;SDS011;23740;51.550;6.846;2022-07-03T05:05:57;8.70;;;3.85;;
37907;SDS011;23740;51.550;6.846;2022-07-03T05:08:23;7.38;;;3.90;;
37907;SDS011;23740;51.550;6.846;2022-07-03T05:10:48;7.82;;;5.95;;
37907;SDS011;23740;51.550;6.846;2022-07-03T05:13:14;8.93;;;5.75;;
37907;SDS011;23740;51.550;6.846;2022-07-03T05:15:39;10.35;;;6.30;;
37907;SDS011;23740;51.550;6.846;2022-07-03T05:18:04;10.57;;;8.25;;
37907;SDS011;23740;51.550;6.846;2022-07-03T05:20:30;11.10;;;8.32;;
37907;SDS011;23740;51.550;6.846;2022-07-03T05:22:56;11.05;;;7.00;;
37907;SDS011;23740;51.550;6.846;2022-07-03T05:25:22;9.52;;;6.47;;
37907;SDS011;23740;51.550;6.846;2022-07-03T05:27:48;10.63;;;6.30;;
37907;SDS011;23740;51.550;6.846;2022-07-03T05:30:18;7.20;;;5.32;;
37907;SDS011;23740;51.550;6.846;2022-07-03T05:32:44;9.98;;;5.85;;
37907;SDS011;23740;51.550;6.846;2022-07-03T05:35:09;10.57;;;7.35;;
37907;SDS011;23740;51.550;6.846;2022-07-03T05:37:35;8.60;;;6.05;;
37907;SDS011;23740;51.550;6.846;2022-07-03T05:40:00;6.05;;;5.03;;
37907;SDS011;23740;51.550;6.846;2022-07-03T05:42:26;7.57;;;4.82;;
37907;SDS011;23740;51.550;6.846;2022-07-03T05:44:51;7.50;;;5.28;;
37907;SDS011;23740;51.550;6.846;2022-07-03T05:47:17;7.93;;;4.95;;
37907;SDS011;23740;51.550;6.846;2022-07-03T05:49:42;5.57;;;4.30;;
37907;SDS011;23740;51.550;6.846;2022-07-03T05:52:08;5.32;;;4.13;;
37907;SDS011;23740;51.550;6.846;2022-07-03T05:54:33;5.30;;;4.13;;
37907;SDS011;23740;51.550;6.846;2022-07-03T05:56:59;6.85;;;3.70;;
37907;SDS011;23740;51.550;6.846;2022-07-03T05:59:24;7.00;;;3.72;;
37907;SDS011;23740;51.550;6.846;2022-07-03T06:01:49;6.05;;;4.28;;
37907;SDS011;23740;51.550;6.846;2022-07-03T06:04:15;9.20;;;3.90;;
37907;SDS011;23740;51.550;6.846;2022-07-03T06:06:41;6.40;;;3.63;;
37907;SDS011;23740;51.550;6.846;2022-07-03T06:09:06;5.40;;;3.58;;
37907;SDS011;23740;51.550;6.846;2022-07-03T06:11:32;5.30;;;3.30;;
37907;SDS011;23740;51.550;6.846;2022-07-03T06:13:57;5.85;;;3.63;;
37907;SDS011;23740;51.550;6.846;2022-07-03T06:16:23;5.35;;;3.20;;
37907;SDS011;23740;51.550;6.846;2022-07-03T06:18:48;8.02;;;3.72;;
37907;SDS011;23740;51.550;6.846;2022-07-03T06:21:33;5.38;;;3.60;;
37907;SDS011;23740;51.550;6.846;2022-07-03T06:23:59;5.05;;;3.30;;
37907;SDS011;23740;51.550;6.846;2022-07-03T06:26:27;4.25;;;3.38;;
37907;SDS011;23740;51.550;6.846;2022-07-03T06:28:54;4.25;;;2.75;;
37907;SDS011;23740;51.550;6.846;2022-07-03T06:31:19;5.15;;;3.10;;
37907;SDS011;23740;51.550;6.846;2022-07-03T06:33:45;5.22;;;3.13;;
37907;SDS011;23740;51.550;6.846;2022-07-03T06:36:10;4.10;;;2.85;;
37907;SDS011;23740;51.550;6.846;2022-07-03T06:38:35;3.72;;;2.80;;
37907;SDS011;23740;51.550;6.846;2022-07-03T06:41:01;4.32;;;3.08;;
37907;SDS011;23740;51.550;6.846;2022-07-03T06:43:26;8.43;;;3.92;;
37907;SDS011;23740;51.550;6.846;2022-07-03T06:45:52;6.10;;;3.22;;
37907;SDS011;23740;51.550;6.846;2022-07-03T06:48:17;3.78;;;2.65;;
37907;SDS011;23740;51.550;6.846;2022-07-03T06:50:43;6.63;;;3.00;;
37907;SDS011;23740;51.550;6.846;2022-07-03T06:53:08;4.43;;;2.63;;
37907;SDS011;23740;51.550;6.846;2022-07-03T06:55:33;4.45;;;2.63;;
37907;SDS011;23740;51.550;6.846;2022-07-03T06:57:59;4.25;;;3.10;;
37907;SDS011;23740;51.550;6.846;2022-07-03T07:00:24;4.20;;;2.72;;
37907;SDS011;23740;51.550;6.846;2022-07-03T07:02:50;5.32;;;3.20;;
37907;SDS011;23740;51.550;6.846;2022-07-03T07:05:15;5.82;;;2.83;;
37907;SDS011;23740;51.550;6.846;2022-07-03T07:07:41;3.28;;;2.55;;
37907;SDS011;23740;51.550;6.846;2022-07-03T07:10:06;5.18;;;3.08;;
37907;SDS011;23740;51.550;6.846;2022-07-03T07:12:32;6.70;;;2.60;;
37907;SDS011;23740;51.550;6.846;2022-07-03T07:14:58;6.40;;;2.65;;
37907;SDS011;23740;51.550;6.846;2022-07-03T07:17:23;12.90;;;9.18;;
37907;SDS011;23740;51.550;6.846;2022-07-03T07:19:48;7.15;;;2.58;;
37907;SDS011;23740;51.550;6.846;2022-07-03T07:22:14;6.22;;;2.55;;
37907;SDS011;23740;51.550;6.846;2022-07-03T07:24:39;5.53;;;2.63;;
37907;SDS011;23740;51.550;6.846;2022-07-03T07:27:05;4.90;;;2.83;;
37907;SDS011;23740;51.550;6.846;2022-07-03T07:29:30;4.75;;;2.53;;
37907;SDS011;23740;51.550;6.846;2022-07-03T07:31:56;5.70;;;2.40;;
37907;SDS011;23740;51.550;6.846;2022-07-03T07:34:21;3.83;;;2.17;;
37907;SDS011;23740;51.550;6.846;2022-07-03T07:36:47;5.38;;;2.83;;
37907;SDS011;23740;51.550;6.846;2022-07-03T07:39:12;3.40;;;2.13;;
37907;SDS011;23740;51.550;6.846;2022-07-03T07:41:38;5.57;;;2.40;;
37907;SDS011;23740;51.550;6.846;2022-07-03T07:44:03;3.40;;;2.30;;
37907;SDS011;23740;51.550;6.846;2022-07-03T07:46:29;4.65;;;2.25;;
37907;SDS011;23740;51.550;6.846;2022-07-03T07:48:55;5.05;;;2.35;;
37907;SDS011;23740;51.550;6.846;2022-07-03T07:51:21;4.10;;;2.00;;
37907;SDS011;23740;51.550;6.846;2022-07-03T07:53:49;5.10;;;2.13;;
37907;SDS011;23740;51.550;6.846;2022-07-03T07:56:17;4.38;;;2.10;;
37907;SDS011;23740;51.550;6.846;2022-07-03T07:58:43;3.10;;;2.00;;
37907;SDS011;23740;51.550;6.846;2022-07-03T08:01:08;6.10;;;2.40;;
37907;SDS011;23740;51.550;6.846;2022-07-03T08:03:52;3.38;;;2.08;;
37907;SDS011;23740;51.550;6.846;2022-07-03T08:06:36;3.10;;;2.15;;
37907;SDS011;23740;51.550;6.846;2022-07-03T08:09:02;4.40;;;2.25;;
37907;SDS011;23740;51.550;6.846;2022-07-03T08:11:28;4.82;;;2.10;;
37907;SDS011;23740;51.550;6.846;2022-07-03T08:13:53;3.35;;;2.20;;
37907;SDS011;23740;51.550;6.846;2022-07-03T08:16:18;5.97;;;2.65;;
37907;SDS011;23740;51.550;6.846;2022-07-03T08:18:44;7.93;;;4.43;;
37907;SDS011;23740;51.550;6.846;2022-07-03T08:21:09;6.07;;;3.10;;
37907;SDS011;23740;51.550;6.846;2022-07-03T08:23:35;4.40;;;2.70;;
37907;SDS011;23740;51.550;6.846;2022-07-03T08:26:00;5.25;;;2.72;;
37907;SDS011;23740;51.550;6.846;2022-07-03T08:28:26;4.22;;;2.55;;
37907;SDS011;23740;51.550;6.846;2022-07-03T08:30:52;7.32;;;3.22;;
37907;SDS011;23740;51.550;6.846;2022-07-03T08:33:18;5.13;;;2.58;;
37907;SDS011;23740;51.550;6.846;2022-07-03T08:35:43;5.35;;;2.50;;
37907;SDS011;23740;51.550;6.846;2022-07-03T08:38:08;5.40;;;3.13;;
37907;SDS011;23740;51.550;6.846;2022-07-03T08:40:34;5.78;;;2.55;;
37907;SDS011;23740;51.550;6.846;2022-07-03T08:43:00;5.07;;;2.40;;
37907;SDS011;23740;51.550;6.846;2022-07-03T08:45:29;5.25;;;2.20;;
37907;SDS011;23740;51.550;6.846;2022-07-03T08:47:56;7.03;;;2.78;;
37907;SDS011;23740;51.550;6.846;2022-07-03T08:50:22;5.47;;;2.53;;
37907;SDS011;23740;51.550;6.846;2022-07-03T08:52:49;6.03;;;2.60;;
37907;SDS011;23740;51.550;6.846;2022-07-03T08:55:15;4.97;;;2.22;;
37907;SDS011;23740;51.550;6.846;2022-07-03T08:57:42;6.30;;;3.17;;
37907;SDS011;23740;51.550;6.846;2022-07-03T09:00:10;3.60;;;2.80;;
37907;SDS011;23740;51.550;6.846;2022-07-03T09:02:40;4.43;;;3.35;;
37907;SDS011;23740;51.550;6.846;2022-07-03T09:05:09;4.22;;;2.17;;
37907;SDS011;23740;51.550;6.846;2022-07-03T09:07:39;7.85;;;2.60;;
37907;SDS011;23740;51.550;6.846;2022-07-03T09:10:07;7.32;;;2.60;;
37907;SDS011;23740;51.550;6.846;2022-07-03T09:12:34;3.88;;;2.15;;
37907;SDS011;23740;51.550;6.846;2022-07-03T09:15:01;9.82;;;2.95;;
37907;SDS011;23740;51.550;6.846;2022-07-03T09:17:30;4.80;;;2.22;;
37907;SDS011;23740;51.550;6.846;2022-07-03T09:20:00;5.80;;;2.10;;
37907;SDS011;23740;51.550;6.846;2022-07-03T09:22:31;3.88;;;2.13;;
37907;SDS011;23740;51.550;6.846;2022-07-03T09:27:34;3.28;;;2.13;;
37907;SDS011;23740;51.550;6.846;2022-07-03T09:30:01;3.40;;;2.20;;
37907;SDS011;23740;51.550;6.846;2022-07-03T09:37:59;4.57;;;2.70;;
37907;SDS011;23740;51.550;6.846;2022-07-03T09:40:27;4.38;;;2.53;;
37907;SDS011;23740;51.550;6.846;2022-07-03T09:43:04;5.15;;;2.67;;
37907;SDS011;23740;51.550;6.846;2022-07-03T09:45:52;5.72;;;2.78;;
37907;SDS011;23740;51.550;6.846;2022-07-03T09:53:57;3.85;;;2.65;;
37907;SDS011;23740;51.550;6.846;2022-07-03T09:56:34;5.63;;;2.80;;
37907;SDS011;23740;51.550;6.846;2022-07-03T10:01:25;7.13;;;2.92;;
37907;SDS011;23740;51.550;6.846;2022-07-03T10:03:51;3.78;;;2.88;;
37907;SDS011;23740;51.550;6.846;2022-07-03T10:06:16;7.43;;;3.00;;
37907;SDS011;23740;51.550;6.846;2022-07-03T10:08:42;5.05;;;2.40;;
37907;SDS011;23740;51.550;6.846;2022-07-03T10:11:09;3.78;;;2.42;;
37907;SDS011;23740;51.550;6.846;2022-07-03T10:13:38;6.03;;;2.63;;
37907;SDS011;23740;51.550;6.846;2022-07-03T10:16:07;4.45;;;2.40;;
37907;SDS011;23740;51.550;6.846;2022-07-03T10:21:07;2.90;;;2.08;;
37907;SDS011;23740;51.550;6.846;2022-07-03T10:23:33;3.53;;;2.38;;
37907;SDS011;23740;51.550;6.846;2022-07-03T10:25:59;4.28;;;2.30;;
37907;SDS011;23740;51.550;6.846;2022-07-03T10:28:24;4.10;;;2.20;;
37907;SDS011;23740;51.550;6.846;2022-07-03T10:30:50;6.82;;;2.97;;
37907;SDS011;23740;51.550;6.846;2022-07-03T10:33:16;6.43;;;2.60;;
37907;SDS011;23740;51.550;6.846;2022-07-03T10:35:48;7.10;;;2.72;;
37907;SDS011;23740;51.550;6.846;2022-07-03T10:41:03;6.68;;;2.40;;
37907;SDS011;23740;51.550;6.846;2022-07-03T10:43:50;5.03;;;2.08;;
37907;SDS011;23740;51.550;6.846;2022-07-03T10:46:35;5.05;;;2.38;;
37907;SDS011;23740;51.550;6.846;2022-07-03T10:49:04;4.18;;;2.40;;
37907;SDS011;23740;51.550;6.846;2022-07-03T10:54:32;3.65;;;2.10;;
37907;SDS011;23740;51.550;6.846;2022-07-03T10:57:05;5.28;;;1.80;;
37907;SDS011;23740;51.550;6.846;2022-07-03T11:07:30;2.95;;;1.70;;
37907;SDS011;23740;51.550;6.846;2022-07-03T11:12:53;6.15;;;2.22;;
37907;SDS011;23740;51.550;6.846;2022-07-03T11:25:44;11.02;;;2.53;;
37907;SDS011;23740;51.550;6.846;2022-07-03T11:38:46;3.35;;;1.60;;
37907;SDS011;23740;51.550;6.846;2022-07-03T11:41:14;3.20;;;1.52;;
37907;SDS011;23740;51.550;6.846;2022-07-03T11:46:16;5.38;;;1.70;;
37907;SDS011;23740;51.550;6.846;2022-07-03T11:48:42;2.00;;;1.30;;
37907;SDS011;23740;51.550;6.846;2022-07-03T11:51:07;3.10;;;1.55;;
37907;SDS011;23740;51.550;6.846;2022-07-03T11:53:34;5.13;;;1.65;;
37907;SDS011;23740;51.550;6.846;2022-07-03T11:56:10;2.13;;;1.20;;
37907;SDS011;23740;51.550;6.846;2022-07-03T11:58:47;5.05;;;2.00;;
37907;SDS011;23740;51.550;6.846;2022-07-03T12:06:57;4.25;;;1.40;;
37907;SDS011;23740;51.550;6.846;2022-07-03T12:17:08;2.88;;;1.48;;
37907;SDS011;23740;51.550;6.846;2022-07-03T12:19:37;3.45;;;1.65;;
37907;SDS011;23740;51.550;6.846;2022-07-03T12:22:03;2.55;;;1.20;;
37907;SDS011;23740;51.550;6.846;2022-07-03T12:24:29;2.47;;;1.40;;
37907;SDS011;23740;51.550;6.846;2022-07-03T12:26:54;4.82;;;1.35;;
37907;SDS011;23740;51.550;6.846;2022-07-03T12:29:20;3.25;;;1.58;;
37907;SDS011;23740;51.550;6.846;2022-07-03T12:31:46;3.10;;;1.50;;
37907;SDS011;23740;51.550;6.846;2022-07-03T12:34:13;4.57;;;1.33;;
37907;SDS011;23740;51.550;6.846;2022-07-03T12:36:39;2.88;;;1.58;;
37907;SDS011;23740;51.550;6.846;2022-07-03T12:39:05;2.35;;;1.17;;
37907;SDS011;23740;51.550;6.846;2022-07-03T12:41:31;5.13;;;1.70;;
37907;SDS011;23740;51.550;6.846;2022-07-03T12:43:59;2.60;;;1.40;;
37907;SDS011;23740;51.550;6.846;2022-07-03T12:48:57;2.28;;;1.40;;
37907;SDS011;23740;51.550;6.846;2022-07-03T12:57:01;2.03;;;1.70;;
37907;SDS011;23740;51.550;6.846;2022-07-03T13:02:31;2.00;;;1.38;;
37907;SDS011;23740;51.550;6.846;2022-07-03T13:04:58;2.83;;;1.83;;
37907;SDS011;23740;51.550;6.846;2022-07-03T13:07:27;3.10;;;1.38;;
37907;SDS011;23740;51.550;6.846;2022-07-03T13:09:54;2.30;;;1.60;;
37907;SDS011;23740;51.550;6.846;2022-07-03T13:12:22;8.52;;;1.80;;
37907;SDS011;23740;51.550;6.846;2022-07-03T13:14:58;2.38;;;2.00;;
37907;SDS011;23740;51.550;6.846;2022-07-03T13:17:24;2.17;;;1.80;;
37907;SDS011;23740;51.550;6.846;2022-07-03T13:20:09;2.55;;;1.98;;
37907;SDS011;23740;51.550;6.846;2022-07-03T13:22:35;4.57;;;1.73;;
37907;SDS011;23740;51.550;6.846;2022-07-03T13:25:00;1.92;;;1.60;;
37907;SDS011;23740;51.550;6.846;2022-07-03T13:27:26;1.60;;;1.50;;
37907;SDS011;23740;51.550;6.846;2022-07-03T13:29:51;3.92;;;2.38;;
37907;SDS011;23740;51.550;6.846;2022-07-03T13:32:16;4.63;;;1.80;;
37907;SDS011;23740;51.550;6.846;2022-07-03T13:34:42;3.13;;;1.65;;
37907;SDS011;23740;51.550;6.846;2022-07-03T13:37:07;2.28;;;1.60;;
37907;SDS011;23740;51.550;6.846;2022-07-03T13:39:33;3.13;;;1.67;;
37907;SDS011;23740;51.550;6.846;2022-07-03T13:41:58;3.03;;;1.85;;
37907;SDS011;23740;51.550;6.846;2022-07-03T13:44:23;1.85;;;1.65;;
37907;SDS011;23740;51.550;6.846;2022-07-03T13:46:49;1.63;;;1.50;;
37907;SDS011;23740;51.550;6.846;2022-07-03T13:49:14;3.85;;;1.65;;
37907;SDS011;23740;51.550;6.846;2022-07-03T13:51:40;2.05;;;1.48;;
37907;SDS011;23740;51.550;6.846;2022-07-03T13:54:05;2.97;;;1.65;;
37907;SDS011;23740;51.550;6.846;2022-07-03T13:56:30;3.22;;;1.70;;
37907;SDS011;23740;51.550;6.846;2022-07-03T13:58:56;2.90;;;1.42;;
37907;SDS011;23740;51.550;6.846;2022-07-03T14:01:22;4.80;;;1.55;;
37907;SDS011;23740;51.550;6.846;2022-07-03T14:03:47;2.47;;;1.38;;
37907;SDS011;23740;51.550;6.846;2022-07-03T14:06:13;1.80;;;1.70;;
37907;SDS011;23740;51.550;6.846;2022-07-03T14:08:38;4.22;;;1.63;;
37907;SDS011;23740;51.550;6.846;2022-07-03T14:11:04;3.65;;;1.58;;
37907;SDS011;23740;51.550;6.846;2022-07-03T14:13:29;2.95;;;1.10;;
37907;SDS011;23740;51.550;6.846;2022-07-03T14:15:55;10.43;;;1.60;;
37907;SDS011;23740;51.550;6.846;2022-07-03T14:18:21;2.67;;;1.48;;
37907;SDS011;23740;51.550;6.846;2022-07-03T14:20:47;3.10;;;1.15;;
37907;SDS011;23740;51.550;6.846;2022-07-03T14:23:12;3.70;;;1.50;;
37907;SDS011;23740;51.550;6.846;2022-07-03T14:25:38;1.48;;;1.23;;
37907;SDS011;23740;51.550;6.846;2022-07-03T14:28:03;3.50;;;1.23;;
37907;SDS011;23740;51.550;6.846;2022-07-03T14:30:47;2.97;;;1.27;;
37907;SDS011;23740;51.550;6.846;2022-07-03T14:33:31;3.05;;;1.58;;
37907;SDS011;23740;51.550;6.846;2022-07-03T14:35:57;1.83;;;1.15;;
37907;SDS011;23740;51.550;6.846;2022-07-03T14:38:22;2.53;;;1.15;;
37907;SDS011;23740;51.550;6.846;2022-07-03T14:40:48;1.75;;;1.40;;
37907;SDS011;23740;51.550;6.846;2022-07-03T14:43:13;2.78;;;1.40;;
37907;SDS011;23740;51.550;6.846;2022-07-03T14:45:39;1.63;;;1.17;;
37907;SDS011;23740;51.550;6.846;2022-07-03T14:48:04;2.10;;;1.20;;
37907;SDS011;23740;51.550;6.846;2022-07-03T14:50:30;2.35;;;1.42;;
37907;SDS011;23740;51.550;6.846;2022-07-03T14:52:55;1.15;;;1.02;;
37907;SDS011;23740;51.550;6.846;2022-07-03T14:55:21;1.38;;;1.20;;
37907;SDS011;23740;51.550;6.846;2022-07-03T14:58:01;2.08;;;1.20;;
37907;SDS011;23740;51.550;6.846;2022-07-03T15:00:47;2.92;;;1.40;;
37907;SDS011;23740;51.550;6.846;2022-07-03T15:06:07;1.83;;;1.13;;
37907;SDS011;23740;51.550;6.846;2022-07-03T15:11:02;2.50;;;1.25;;
37907;SDS011;23740;51.550;6.846;2022-07-03T15:13:30;1.80;;;1.30;;
37907;SDS011;23740;51.550;6.846;2022-07-03T15:16:00;1.98;;;1.20;;
37907;SDS011;23740;51.550;6.846;2022-07-03T15:18:26;1.70;;;1.13;;
37907;SDS011;23740;51.550;6.846;2022-07-03T15:20:53;3.80;;;1.30;;
37907;SDS011;23740;51.550;6.846;2022-07-03T15:23:19;4.10;;;1.38;;
37907;SDS011;23740;51.550;6.846;2022-07-03T15:25:45;2.03;;;1.40;;
37907;SDS011;23740;51.550;6.846;2022-07-03T15:28:14;2.55;;;1.23;;
37907;SDS011;23740;51.550;6.846;2022-07-03T15:30:45;11.77;;;8.98;;
37907;SDS011;23740;51.550;6.846;2022-07-03T15:33:14;2.50;;;1.48;;
37907;SDS011;23740;51.550;6.846;2022-07-03T15:35:44;2.60;;;1.40;;
37907;SDS011;23740;51.550;6.846;2022-07-03T15:38:13;3.42;;;1.60;;
37907;SDS011;23740;51.550;6.846;2022-07-03T15:40:46;3.70;;;1.40;;
37907;SDS011;23740;51.550;6.846;2022-07-03T15:46:08;3.90;;;1.60;;
37907;SDS011;23740;51.550;6.846;2022-07-03T15:53:31;3.70;;;1.73;;
37907;SDS011;23740;51.550;6.846;2022-07-03T15:56:02;2.80;;;1.35;;
37907;SDS011;23740;51.550;6.846;2022-07-03T15:58:29;2.17;;;1.50;;
37907;SDS011;23740;51.550;6.846;2022-07-03T16:00:57;3.50;;;1.42;;
37907;SDS011;23740;51.550;6.846;2022-07-03T16:04:01;2.33;;;1.17;;
37907;SDS011;23740;51.550;6.846;2022-07-03T16:06:27;2.53;;;1.63;;
37907;SDS011;23740;51.550;6.846;2022-07-03T16:08:55;2.17;;;1.20;;
37907;SDS011;23740;51.550;6.846;2022-07-03T16:11:21;3.00;;;1.83;;
37907;SDS011;23740;51.550;6.846;2022-07-03T16:13:46;1.55;;;1.10;;
37907;SDS011;23740;51.550;6.846;2022-07-03T16:16:15;2.17;;;1.20;;
37907;SDS011;23740;51.550;6.846;2022-07-03T16:18:42;1.95;;;1.02;;
37907;SDS011;23740;51.550;6.846;2022-07-03T16:21:09;3.58;;;1.10;;
37907;SDS011;23740;51.550;6.846;2022-07-03T16:23:35;2.70;;;1.08;;
37907;SDS011;23740;51.550;6.846;2022-07-03T16:26:02;4.82;;;0.95;;
37907;SDS011;23740;51.550;6.846;2022-07-03T16:28:28;1.08;;;1.00;;
37907;SDS011;23740;51.550;6.846;2022-07-03T16:30:54;2.35;;;0.88;;
37907;SDS011;23740;51.550;6.846;2022-07-03T16:33:22;1.55;;;1.00;;
37907;SDS011;23740;51.550;6.846;2022-07-03T16:35:54;2.80;;;1.02;;
37907;SDS011;23740;51.550;6.846;2022-07-03T16:38:35;1.73;;;0.90;;
37907;SDS011;23740;51.550;6.846;2022-07-03T16:41:01;3.28;;;1.00;;
37907;SDS011;23740;51.550;6.846;2022-07-03T16:43:30;1.13;;;0.90;;
37907;SDS011;23740;51.550;6.846;2022-07-03T16:45:57;4.30;;;1.15;;
37907;SDS011;23740;51.550;6.846;2022-07-03T16:48:23;3.47;;;1.33;;
37907;SDS011;23740;51.550;6.846;2022-07-03T16:50:50;5.38;;;1.08;;
37907;SDS011;23740;51.550;6.846;2022-07-03T16:53:17;1.45;;;1.10;;
37907;SDS011;23740;51.550;6.846;2022-07-03T16:55:44;2.85;;;1.73;;
37907;SDS011;23740;51.550;6.846;2022-07-03T16:58:11;3.40;;;1.80;;
37907;SDS011;23740;51.550;6.846;2022-07-03T17:00:37;4.32;;;2.20;;
37907;SDS011;23740;51.550;6.846;2022-07-03T17:03:03;1.95;;;1.35;;
37907;SDS011;23740;51.550;6.846;2022-07-03T17:05:29;1.85;;;0.95;;
37907;SDS011;23740;51.550;6.846;2022-07-03T17:07:55;7.68;;;1.42;;
37907;SDS011;23740;51.550;6.846;2022-07-03T17:10:21;1.77;;;1.23;;
37907;SDS011;23740;51.550;6.846;2022-07-03T17:12:50;2.28;;;1.45;;